sensor_id;sensor_type;location;lat;lon;timestamp;pressure;altitude;pressure_sealevel;temperature;humidity
62617;BME280;76316;51.190;6.808;2024-03-06T00:00:46;101442.09;;;16.98;67.64
62617;BME280;76316;51.190;6.808;2024-03-06T00:03:12;101444.72;;;16.96;67.74
62617;BME280;76316;51.190;6.808;2024-03-06T00:05:37;101440.38;;;16.95;67.75
62617;BME280;76316;51.190;6.808;2024-03-06T00:08:03;101449.13;;;16.94;67.55
62617;BME280;76316;51.190;6.808;2024-03-06T00:10:29;101455.22;;;16.95;67.61
62617;BME280;76316;51.190;6.808;2024-03-06T00:12:54;101453.53;;;16.92;67.42
62617;BME280;76316;51.190;6.808;2024-03-06T00:15:19;101455.28;;;16.92;67.64
62617;BME280;76316;51.190;6.808;2024-03-06T00:17:45;101456.16;;;16.90;67.58
62617;BME280;76316;51.190;6.808;2024-03-06T00:20:11;101468.41;;;16.90;67.69
62617;BME280;76316;51.190;6.808;2024-03-06T00:22:36;101469.31;;;16.87;67.51
62617;BME280;76316;51.190;6.808;2024-03-06T00:25:02;101463.22;;;16.87;67.78
62617;BME280;76316;51.190;6.808;2024-03-06T00:27:28;101466.75;;;16.86;67.44
62617;BME280;76316;51.190;6.808;2024-03-06T00:29:53;101465.00;;;16.85;67.58
62617;BME280;76316;51.190;6.808;2024-03-06T00:32:19;101468.53;;;16.84;67.55
62617;BME280;76316;51.190;6.808;2024-03-06T00:34:44;101475.53;;;16.82;67.70
62617;BME280;76316;51.190;6.808;2024-03-06T00:37:09;101473.81;;;16.81;67.59
62617;BME280;76316;51.190;6.808;2024-03-06T00:39:35;101476.44;;;16.79;67.57
62617;BME280;76316;51.190;6.808;2024-03-06T00:42:00;101483.50;;;16.75;67.80
62617;BME280;76316;51.190;6.808;2024-03-06T00:44:26;101487.00;;;16.74;67.68
62617;BME280;76316;51.190;6.808;2024-03-06T00:46:51;101487.91;;;16.73;67.70
62617;BME280;76316;51.190;6.808;2024-03-06T00:49:17;101488.78;;;16.71;67.75
62617;BME280;76316;51.190;6.808;2024-03-06T00:51:42;101494.91;;;16.70;67.65
62617;BME280;76316;51.190;6.808;2024-03-06T00:54:07;101490.63;;;16.67;67.94
62617;BME280;76316;51.190;6.808;2024-03-06T00:56:37;101501.97;;;16.66;67.84
62617;BME280;76316;51.190;6.808;2024-03-06T00:59:04;101503.75;;;16.64;67.83
62617;BME280;76316;51.190;6.808;2024-03-06T01:01:29;101511.63;;;16.63;67.69
62617;BME280;76316;51.190;6.808;2024-03-06T01:03:55;101509.03;;;16.59;67.99
62617;BME280;76316;51.190;6.808;2024-03-06T01:06:20;101512.59;;;16.57;68.06
62617;BME280;76316;51.190;6.808;2024-03-06T01:08:46;101515.22;;;16.55;67.99
62617;BME280;76316;51.190;6.808;2024-03-06T01:11:11;101523.97;;;16.54;67.88
62617;BME280;76316;51.190;6.808;2024-03-06T01:13:39;101519.66;;;16.52;68.06
62617;BME280;76316;51.190;6.808;2024-03-06T01:16:05;101522.28;;;16.52;68.12
62617;BME280;76316;51.190;6.808;2024-03-06T01:18:31;101519.69;;;16.49;68.25
62617;BME280;76316;51.190;6.808;2024-03-06T01:20:58;101526.69;;;16.46;68.06
62617;BME280;76316;51.190;6.808;2024-03-06T01:23:23;101529.31;;;16.46;68.16
62617;BME280;76316;51.190;6.808;2024-03-06T01:25:48;101534.56;;;16.45;67.96
62617;BME280;76316;51.190;6.808;2024-03-06T01:28:14;101533.72;;;16.44;67.94
62617;BME280;76316;51.190;6.808;2024-03-06T01:30:39;101538.09;;;16.42;68.00
62617;BME280;76316;51.190;6.808;2024-03-06T01:33:05;101539.00;;;16.41;68.31
62617;BME280;76316;51.190;6.808;2024-03-06T01:35:30;101532.91;;;16.39;68.12
62617;BME280;76316;51.190;6.808;2024-03-06T01:37:55;101539.03;;;16.38;68.29
62617;BME280;76316;51.190;6.808;2024-03-06T01:40:21;101530.34;;;16.36;68.01
62617;BME280;76316;51.190;6.808;2024-03-06T01:42:47;101528.59;;;16.35;68.02
62617;BME280;76316;51.190;6.808;2024-03-06T01:45:14;101528.59;;;16.35;68.13
62617;BME280;76316;51.190;6.808;2024-03-06T01:47:39;101529.50;;;16.33;68.08
62617;BME280;76316;51.190;6.808;2024-03-06T01:50:05;101526.91;;;16.31;68.18
62617;BME280;76316;51.190;6.808;2024-03-06T01:52:34;101529.53;;;16.29;68.30
62617;BME280;76316;51.190;6.808;2024-03-06T01:55:01;101534.81;;;16.26;68.27
62617;BME280;76316;51.190;6.808;2024-03-06T01:57:27;101536.56;;;16.26;68.45
62617;BME280;76316;51.190;6.808;2024-03-06T01:59:54;101533.09;;;16.24;68.38
62617;BME280;76316;51.190;6.808;2024-03-06T02:02:20;101531.38;;;16.23;68.41
62617;BME280;76316;51.190;6.808;2024-03-06T02:04:46;101530.53;;;16.21;68.54
62617;BME280;76316;51.190;6.808;2024-03-06T02:07:12;101536.66;;;16.20;68.26
62617;BME280;76316;51.190;6.808;2024-03-06T02:09:39;101533.16;;;16.19;68.36
62617;BME280;76316;51.190;6.808;2024-03-06T02:12:06;101540.16;;;16.19;68.31
62617;BME280;76316;51.190;6.808;2024-03-06T02:14:36;101542.78;;;16.17;68.50
62617;BME280;76316;51.190;6.808;2024-03-06T02:17:02;101537.56;;;16.15;68.34
62617;BME280;76316;51.190;6.808;2024-03-06T02:19:38;101545.41;;;16.15;68.40
62617;BME280;76316;51.190;6.808;2024-03-06T02:22:05;101547.16;;;16.15;68.36
62617;BME280;76316;51.190;6.808;2024-03-06T02:24:31;101548.06;;;16.12;68.43
62617;BME280;76316;51.190;6.808;2024-03-06T02:26:56;101548.97;;;16.11;68.38
62617;BME280;76316;51.190;6.808;2024-03-06T02:29:24;101545.47;;;16.12;68.55
62617;BME280;76316;51.190;6.808;2024-03-06T02:31:50;101546.34;;;16.11;68.27
62617;BME280;76316;51.190;6.808;2024-03-06T02:34:15;101540.22;;;16.11;68.40
62617;BME280;76316;51.190;6.808;2024-03-06T02:36:41;101550.69;;;16.11;68.40
62617;BME280;76316;51.190;6.808;2024-03-06T02:39:07;101549.84;;;16.10;68.29
62617;BME280;76316;51.190;6.808;2024-03-06T02:41:35;101548.13;;;16.09;68.34
62617;BME280;76316;51.190;6.808;2024-03-06T02:44:01;101542.00;;;16.09;68.31
62617;BME280;76316;51.190;6.808;2024-03-06T02:46:27;101543.75;;;16.08;68.30
62617;BME280;76316;51.190;6.808;2024-03-06T02:48:53;101541.16;;;16.08;68.30
62617;BME280;76316;51.190;6.808;2024-03-06T02:51:19;101535.91;;;16.08;68.17
62617;BME280;76316;51.190;6.808;2024-03-06T02:53:45;101545.50;;;16.08;68.32
62617;BME280;76316;51.190;6.808;2024-03-06T02:56:16;101539.41;;;16.07;68.05
62617;BME280;76316;51.190;6.808;2024-03-06T02:58:42;101547.25;;;16.07;68.23
62617;BME280;76316;51.190;6.808;2024-03-06T03:01:07;101555.97;;;16.08;68.20
62617;BME280;76316;51.190;6.808;2024-03-06T03:03:34;101554.22;;;16.07;68.25
62617;BME280;76316;51.190;6.808;2024-03-06T03:06:00;101545.50;;;16.08;68.11
62617;BME280;76316;51.190;6.808;2024-03-06T03:08:26;101543.75;;;16.07;68.04
62617;BME280;76316;51.190;6.808;2024-03-06T03:10:51;101555.13;;;16.06;68.30
62617;BME280;76316;51.190;6.808;2024-03-06T03:13:16;101546.41;;;16.05;67.88
62617;BME280;76316;51.190;6.808;2024-03-06T03:15:42;101553.38;;;16.06;68.05
62617;BME280;76316;51.190;6.808;2024-03-06T03:18:08;101549.91;;;16.04;68.13
62617;BME280;76316;51.190;6.808;2024-03-06T03:20:33;101544.69;;;16.04;68.15
62617;BME280;76316;51.190;6.808;2024-03-06T03:23:00;101554.25;;;16.04;67.88
62617;BME280;76316;51.190;6.808;2024-03-06T03:25:26;101557.78;;;16.04;67.97
62617;BME280;76316;51.190;6.808;2024-03-06T03:27:52;101556.03;;;16.03;67.88
62617;BME280;76316;51.190;6.808;2024-03-06T03:30:17;101561.28;;;16.03;67.90
62617;BME280;76316;51.190;6.808;2024-03-06T03:32:47;101558.66;;;16.03;67.88
62617;BME280;76316;51.190;6.808;2024-03-06T03:35:14;101566.50;;;16.01;67.82
62617;BME280;76316;51.190;6.808;2024-03-06T03:37:39;101569.16;;;16.00;68.03
62617;BME280;76316;51.190;6.808;2024-03-06T03:40:06;101571.78;;;15.98;68.20
62617;BME280;76316;51.190;6.808;2024-03-06T03:42:32;101570.91;;;15.98;68.10
62617;BME280;76316;51.190;6.808;2024-03-06T03:44:57;101565.72;;;15.95;67.83
62617;BME280;76316;51.190;6.808;2024-03-06T03:47:23;101567.44;;;15.96;68.13
62617;BME280;76316;51.190;6.808;2024-03-06T03:49:48;101572.72;;;15.93;68.11
62617;BME280;76316;51.190;6.808;2024-03-06T03:52:13;101571.00;;;15.92;68.11
62617;BME280;76316;51.190;6.808;2024-03-06T03:54:39;101578.00;;;15.90;68.17
62617;BME280;76316;51.190;6.808;2024-03-06T03:57:05;101576.25;;;15.89;68.02
62617;BME280;76316;51.190;6.808;2024-03-06T03:59:32;101583.22;;;15.86;68.30
62617;BME280;76316;51.190;6.808;2024-03-06T04:01:57;101583.22;;;15.86;68.40
62617;BME280;76316;51.190;6.808;2024-03-06T04:04:23;101581.47;;;15.85;68.16
62617;BME280;76316;51.190;6.808;2024-03-06T04:06:49;101589.34;;;15.85;68.35
62617;BME280;76316;51.190;6.808;2024-03-06T04:09:14;101590.22;;;15.84;68.33
62617;BME280;76316;51.190;6.808;2024-03-06T04:11:40;101601.56;;;15.83;68.03
62617;BME280;76316;51.190;6.808;2024-03-06T04:14:05;101589.41;;;15.81;68.31
62617;BME280;76316;51.190;6.808;2024-03-06T04:16:32;101593.75;;;15.80;68.23
62617;BME280;76316;51.190;6.808;2024-03-06T04:18:57;101597.28;;;15.78;68.25
62617;BME280;76316;51.190;6.808;2024-03-06T04:21:23;101597.28;;;15.76;68.50
62617;BME280;76316;51.190;6.808;2024-03-06T04:23:48;101602.50;;;15.76;68.35
62617;BME280;76316;51.190;6.808;2024-03-06T04:26:14;101603.38;;;15.75;68.34
62617;BME280;76316;51.190;6.808;2024-03-06T04:28:40;101607.75;;;15.73;68.34
62617;BME280;76316;51.190;6.808;2024-03-06T04:31:05;101618.22;;;15.73;68.14
62617;BME280;76316;51.190;6.808;2024-03-06T04:33:31;101617.38;;;15.71;68.60
62617;BME280;76316;51.190;6.808;2024-03-06T04:35:57;101619.91;;;15.80;68.04
62617;BME280;76316;51.190;6.808;2024-03-06T04:38:22;101622.44;;;15.91;67.54
62617;BME280;76316;51.190;6.808;2024-03-06T04:40:48;101628.44;;;16.04;67.28
62617;BME280;76316;51.190;6.808;2024-03-06T04:43:13;101624.81;;;16.17;67.14
62617;BME280;76316;51.190;6.808;2024-03-06T04:45:39;101625.53;;;16.30;66.57
62617;BME280;76316;51.190;6.808;2024-03-06T04:48:05;101625.41;;;16.41;66.28
62617;BME280;76316;51.190;6.808;2024-03-06T04:50:31;101631.38;;;16.53;66.02
62617;BME280;76316;51.190;6.808;2024-03-06T04:52:56;101631.25;;;16.65;65.77
62617;BME280;76316;51.190;6.808;2024-03-06T04:55:22;101628.50;;;16.73;65.24
62617;BME280;76316;51.190;6.808;2024-03-06T04:57:48;101634.53;;;16.80;65.01
62617;BME280;76316;51.190;6.808;2024-03-06T05:00:15;101643.22;;;16.85;64.59
62617;BME280;76316;51.190;6.808;2024-03-06T05:02:42;101649.25;;;16.88;64.91
62617;BME280;76316;51.190;6.808;2024-03-06T05:05:08;101648.31;;;16.94;64.63
62617;BME280;76316;51.190;6.808;2024-03-06T05:07:34;101650.06;;;16.95;64.20
62617;BME280;76316;51.190;6.808;2024-03-06T05:10:00;101657.91;;;16.98;64.44
62617;BME280;76316;51.190;6.808;2024-03-06T05:12:26;101654.41;;;16.99;64.39
62617;BME280;76316;51.190;6.808;2024-03-06T05:14:53;101664.81;;;17.06;64.27
62617;BME280;76316;51.190;6.808;2024-03-06T05:17:19;101663.00;;;17.11;64.25
62617;BME280;76316;51.190;6.808;2024-03-06T05:19:45;101674.28;;;17.16;64.14
62617;BME280;76316;51.190;6.808;2024-03-06T05:22:12;101671.56;;;17.21;63.61
62617;BME280;76316;51.190;6.808;2024-03-06T05:24:38;101672.41;;;17.24;63.46
62617;BME280;76316;51.190;6.808;2024-03-06T05:27:04;101676.69;;;17.30;63.91
62617;BME280;76316;51.190;6.808;2024-03-06T05:29:30;101677.47;;;17.37;63.79
62617;BME280;76316;51.190;6.808;2024-03-06T05:31:55;101671.28;;;17.41;63.52
62617;BME280;76316;51.190;6.808;2024-03-06T05:34:24;101682.59;;;17.46;63.54
62617;BME280;76316;51.190;6.808;2024-03-06T05:36:50;101681.59;;;17.52;63.52
62617;BME280;76316;51.190;6.808;2024-03-06T05:39:16;101685.91;;;17.57;63.15
62617;BME280;76316;51.190;6.808;2024-03-06T05:41:43;101689.31;;;17.62;63.04
62617;BME280;76316;51.190;6.808;2024-03-06T05:44:09;101689.28;;;17.66;62.84
62617;BME280;76316;51.190;6.808;2024-03-06T05:46:35;101694.47;;;17.69;62.78
62617;BME280;76316;51.190;6.808;2024-03-06T05:49:01;101697.91;;;17.72;62.90
62617;BME280;76316;51.190;6.808;2024-03-06T05:51:27;101697.91;;;17.74;62.76
62617;BME280;76316;51.190;6.808;2024-03-06T05:53:54;101701.31;;;17.79;62.58
62617;BME280;76316;51.190;6.808;2024-03-06T05:56:19;101708.25;;;17.82;62.68
62617;BME280;76316;51.190;6.808;2024-03-06T05:58:45;101705.56;;;17.86;62.44
62617;BME280;76316;51.190;6.808;2024-03-06T06:01:15;101709.88;;;17.90;62.09
62617;BME280;76316;51.190;6.808;2024-03-06T06:03:44;101712.41;;;17.97;62.17
62617;BME280;76316;51.190;6.808;2024-03-06T06:06:09;101709.75;;;18.00;61.94
62617;BME280;76316;51.190;6.808;2024-03-06T06:08:35;101723.72;;;18.02;62.78
62617;BME280;76316;51.190;6.808;2024-03-06T06:11:01;101728.91;;;18.05;62.66
62617;BME280;76316;51.190;6.808;2024-03-06T06:13:28;101732.38;;;18.07;62.86
62617;BME280;76316;51.190;6.808;2024-03-06T06:15:53;101735.84;;;18.09;62.90
62617;BME280;76316;51.190;6.808;2024-03-06T06:18:19;101740.22;;;18.10;62.77
62617;BME280;76316;51.190;6.808;2024-03-06T06:20:45;101744.53;;;18.13;62.71
62617;BME280;76316;51.190;6.808;2024-03-06T06:23:10;101749.72;;;18.17;63.01
62617;BME280;76316;51.190;6.808;2024-03-06T06:25:36;101757.50;;;18.22;62.66
62617;BME280;76316;51.190;6.808;2024-03-06T06:28:01;101757.44;;;18.27;62.60
62617;BME280;76316;51.190;6.808;2024-03-06T06:30:27;101756.53;;;18.28;62.52
62617;BME280;76316;51.190;6.808;2024-03-06T06:32:52;101760.84;;;18.32;62.55
62617;BME280;76316;51.190;6.808;2024-03-06T06:35:18;101762.56;;;18.33;62.22
62617;BME280;76316;51.190;6.808;2024-03-06T06:37:44;101756.91;;;18.06;51.66
62617;BME280;76316;51.190;6.808;2024-03-06T06:40:10;101766.19;;;17.71;49.57
62617;BME280;76316;51.190;6.808;2024-03-06T06:42:37;101764.47;;;17.67;52.33
62617;BME280;76316;51.190;6.808;2024-03-06T06:45:03;101767.91;;;17.72;52.21
62617;BME280;76316;51.190;6.808;2024-03-06T06:47:31;101766.03;;;17.80;52.47
62617;BME280;76316;51.190;6.808;2024-03-06T06:49:57;101772.03;;;17.88;52.87
62617;BME280;76316;51.190;6.808;2024-03-06T06:52:22;101773.63;;;17.97;53.20
62617;BME280;76316;51.190;6.808;2024-03-06T06:54:47;101777.06;;;18.02;53.45
62617;BME280;76316;51.190;6.808;2024-03-06T06:57:15;101778.75;;;18.08;53.74
62617;BME280;76316;51.190;6.808;2024-03-06T06:59:40;101783.94;;;18.11;54.65
62617;BME280;76316;51.190;6.808;2024-03-06T07:02:06;101784.78;;;18.13;54.79
62617;BME280;76316;51.190;6.808;2024-03-06T07:04:31;101790.00;;;18.16;54.71
62617;BME280;76316;51.190;6.808;2024-03-06T07:06:56;101796.94;;;18.20;54.94
62617;BME280;76316;51.190;6.808;2024-03-06T07:09:22;101801.25;;;18.23;55.35
62617;BME280;76316;51.190;6.808;2024-03-06T07:11:47;101801.19;;;18.28;55.13
62617;BME280;76316;51.190;6.808;2024-03-06T07:14:13;101804.59;;;18.33;55.27
62617;BME280;76316;51.190;6.808;2024-03-06T07:16:42;101802.78;;;18.36;55.22
62617;BME280;76316;51.190;6.808;2024-03-06T07:19:09;101807.13;;;18.39;55.46
62617;BME280;76316;51.190;6.808;2024-03-06T07:21:34;101804.50;;;18.39;55.64
62617;BME280;76316;51.190;6.808;2024-03-06T07:23:59;101813.22;;;18.41;55.66
62617;BME280;76316;51.190;6.808;2024-03-06T07:26:25;101809.69;;;18.42;55.76
62617;BME280;76316;51.190;6.808;2024-03-06T07:28:51;101816.63;;;18.46;55.84
62617;BME280;76316;51.190;6.808;2024-03-06T07:31:17;101813.06;;;18.49;55.67
62617;BME280;76316;51.190;6.808;2024-03-06T07:33:43;101819.16;;;18.53;55.63
62617;BME280;76316;51.190;6.808;2024-03-06T07:36:09;101826.06;;;18.57;55.44
62617;BME280;76316;51.190;6.808;2024-03-06T07:38:34;101834.78;;;18.59;55.69
62617;BME280;76316;51.190;6.808;2024-03-06T07:40:59;101842.63;;;18.62;55.69
62617;BME280;76316;51.190;6.808;2024-03-06T07:43:25;101838.19;;;18.64;55.71
62617;BME280;76316;51.190;6.808;2024-03-06T07:45:51;101830.31;;;18.65;55.69
62617;BME280;76316;51.190;6.808;2024-03-06T07:48:17;101840.81;;;18.65;55.59
62617;BME280;76316;51.190;6.808;2024-03-06T07:50:42;101842.50;;;18.68;55.70
62617;BME280;76316;51.190;6.808;2024-03-06T07:53:08;101839.03;;;18.68;55.41
62617;BME280;76316;51.190;6.808;2024-03-06T07:55:33;101842.53;;;18.66;55.18
62617;BME280;76316;51.190;6.808;2024-03-06T07:57:58;101851.28;;;18.67;55.80
62617;BME280;76316;51.190;6.808;2024-03-06T08:00:24;101860.00;;;18.69;55.75
62617;BME280;76316;51.190;6.808;2024-03-06T08:02:49;101867.88;;;18.71;55.75
62617;BME280;76316;51.190;6.808;2024-03-06T08:05:16;101865.19;;;18.74;55.80
62617;BME280;76316;51.190;6.808;2024-03-06T08:07:42;101871.25;;;18.77;55.62
62617;BME280;76316;51.190;6.808;2024-03-06T08:10:12;101883.44;;;18.81;55.79
62617;BME280;76316;51.190;6.808;2024-03-06T08:12:41;101879.94;;;18.83;55.07
62617;BME280;76316;51.190;6.808;2024-03-06T08:15:09;101878.13;;;18.86;55.57
62617;BME280;76316;51.190;6.808;2024-03-06T08:17:38;101874.56;;;18.89;55.50
62617;BME280;76316;51.190;6.808;2024-03-06T08:20:04;101886.78;;;18.91;55.54
62617;BME280;76316;51.190;6.808;2024-03-06T08:22:42;101888.47;;;18.94;55.67
62617;BME280;76316;51.190;6.808;2024-03-06T08:25:09;101889.38;;;18.94;55.38
62617;BME280;76316;51.190;6.808;2024-03-06T08:27:37;101891.94;;;18.99;55.36
62617;BME280;76316;51.190;6.808;2024-03-06T08:30:04;101894.50;;;19.02;55.20
62617;BME280;76316;51.190;6.808;2024-03-06T08:32:31;101898.81;;;19.06;54.79
62617;BME280;76316;51.190;6.808;2024-03-06T08:35:10;101894.34;;;19.12;54.64
62617;BME280;76316;51.190;6.808;2024-03-06T08:37:38;101900.38;;;19.17;55.25
62617;BME280;76316;51.190;6.808;2024-03-06T08:40:05;101897.69;;;19.20;54.83
62617;BME280;76316;51.190;6.808;2024-03-06T08:42:52;101901.16;;;19.22;54.73
62617;BME280;76316;51.190;6.808;2024-03-06T08:45:18;101905.41;;;19.29;54.20
62617;BME280;76316;51.190;6.808;2024-03-06T08:47:45;101901.75;;;19.36;54.84
62617;BME280;76316;51.190;6.808;2024-03-06T08:50:11;101899.88;;;19.42;54.55
62617;BME280;76316;51.190;6.808;2024-03-06T08:52:38;101906.75;;;19.49;54.40
62617;BME280;76316;51.190;6.808;2024-03-06T08:55:04;101908.44;;;19.53;53.95
62617;BME280;76316;51.190;6.808;2024-03-06T08:57:34;101911.84;;;19.58;54.38
62617;BME280;76316;51.190;6.808;2024-03-06T09:00:01;101908.25;;;19.62;54.39
62617;BME280;76316;51.190;6.808;2024-03-06T09:02:26;101913.44;;;19.65;54.34
62617;BME280;76316;51.190;6.808;2024-03-06T09:04:52;101904.56;;;19.69;54.03
62617;BME280;76316;51.190;6.808;2024-03-06T09:07:19;101919.47;;;19.72;53.85
62617;BME280;76316;51.190;6.808;2024-03-06T09:09:45;101920.25;;;19.76;53.79
62617;BME280;76316;51.190;6.808;2024-03-06T09:12:11;101929.81;;;19.80;53.82
62617;BME280;76316;51.190;6.808;2024-03-06T09:14:37;101919.19;;;19.85;53.75
62617;BME280;76316;51.190;6.808;2024-03-06T09:17:04;101925.25;;;19.88;53.49
62617;BME280;76316;51.190;6.808;2024-03-06T09:19:31;101927.84;;;19.91;53.74
62617;BME280;76316;51.190;6.808;2024-03-06T09:21:58;101929.50;;;19.97;53.69
62617;BME280;76316;51.190;6.808;2024-03-06T09:24:24;101925.06;;;19.99;53.52
62617;BME280;76316;51.190;6.808;2024-03-06T09:26:51;101931.03;;;20.06;53.50
62617;BME280;76316;51.190;6.808;2024-03-06T09:29:17;101937.06;;;20.12;53.18
62617;BME280;76316;51.190;6.808;2024-03-06T09:31:43;101938.66;;;20.18;53.06
62617;BME280;76316;51.190;6.808;2024-03-06T09:34:09;101935.06;;;20.22;53.16
62617;BME280;76316;51.190;6.808;2024-03-06T09:36:41;101927.13;;;20.24;52.91
62617;BME280;76316;51.190;6.808;2024-03-06T09:39:12;101941.97;;;20.28;52.95
62617;BME280;76316;51.190;6.808;2024-03-06T09:41:37;101941.84;;;20.33;52.56
62617;BME280;76316;51.190;6.808;2024-03-06T09:44:06;101933.84;;;20.37;52.75
62617;BME280;76316;51.190;6.808;2024-03-06T09:46:33;101932.81;;;20.43;52.87
62617;BME280;76316;51.190;6.808;2024-03-06T09:49:00;101947.66;;;20.47;52.14
62617;BME280;76316;51.190;6.808;2024-03-06T09:51:26;101946.69;;;20.51;52.11
62617;BME280;76316;51.190;6.808;2024-03-06T09:53:52;101950.16;;;20.53;52.41
62617;BME280;76316;51.190;6.808;2024-03-06T09:56:19;101953.63;;;20.55;52.57
62617;BME280;76316;51.190;6.808;2024-03-06T09:58:45;101948.31;;;20.57;52.28
62617;BME280;76316;51.190;6.808;2024-03-06T10:01:13;101953.47;;;20.62;52.05
62617;BME280;76316;51.190;6.808;2024-03-06T10:03:40;101960.41;;;20.66;52.43
62617;BME280;76316;51.190;6.808;2024-03-06T10:06:06;101960.31;;;20.69;52.19
62617;BME280;76316;51.190;6.808;2024-03-06T10:08:33;101961.97;;;20.73;52.12
62617;BME280;76316;51.190;6.808;2024-03-06T10:10:59;101964.53;;;20.76;51.85
62617;BME280;76316;51.190;6.808;2024-03-06T10:13:25;101961.91;;;20.76;52.20
62617;BME280;76316;51.190;6.808;2024-03-06T10:16:00;101967.06;;;20.82;51.75
62617;BME280;76316;51.190;6.808;2024-03-06T10:18:35;101968.56;;;20.93;51.86
62617;BME280;76316;51.190;6.808;2024-03-06T10:21:03;101972.69;;;21.03;51.65
62617;BME280;76316;51.190;6.808;2024-03-06T10:23:30;101973.34;;;21.11;51.36
62617;BME280;76316;51.190;6.808;2024-03-06T10:25:56;101973.25;;;21.16;51.69
62617;BME280;76316;51.190;6.808;2024-03-06T10:28:23;101967.75;;;21.24;51.41
62617;BME280;76316;51.190;6.808;2024-03-06T10:30:50;101971.03;;;21.32;50.97
62617;BME280;76316;51.190;6.808;2024-03-06T10:33:17;101982.34;;;21.37;50.74
62617;BME280;76316;51.190;6.808;2024-03-06T10:35:45;101974.28;;;21.42;50.76
62617;BME280;76316;51.190;6.808;2024-03-06T10:38:13;101981.19;;;21.48;50.25
62617;BME280;76316;51.190;6.808;2024-03-06T10:40:41;101974.81;;;21.55;50.46
62617;BME280;76316;51.190;6.808;2024-03-06T10:43:08;101978.09;;;21.65;50.43
62617;BME280;76316;51.190;6.808;2024-03-06T10:45:47;101978.63;;;21.76;49.75
62617;BME280;76316;51.190;6.808;2024-03-06T10:48:15;101974.81;;;21.86;49.93
62617;BME280;76316;51.190;6.808;2024-03-06T10:50:43;101987.56;;;22.02;49.52
62617;BME280;76316;51.190;6.808;2024-03-06T10:53:10;101984.53;;;22.16;48.62
62617;BME280;76316;51.190;6.808;2024-03-06T10:55:38;101986.69;;;22.31;48.97
62617;BME280;76316;51.190;6.808;2024-03-06T10:58:08;101992.38;;;22.48;48.56
62617;BME280;76316;51.190;6.808;2024-03-06T11:00:36;101986.59;;;22.63;47.97
62617;BME280;76316;51.190;6.808;2024-03-06T11:03:05;101986.09;;;22.79;47.86
62617;BME280;76316;51.190;6.808;2024-03-06T11:05:41;101986.50;;;22.93;47.52
62617;BME280;76316;51.190;6.808;2024-03-06T11:08:08;101992.03;;;23.12;47.16
62617;BME280;76316;51.190;6.808;2024-03-06T11:10:37;101986.13;;;23.31;46.96
62617;BME280;76316;51.190;6.808;2024-03-06T11:13:08;101991.69;;;23.48;46.27
62617;BME280;76316;51.190;6.808;2024-03-06T11:15:47;101991.84;;;23.68;45.96
62617;BME280;76316;51.190;6.808;2024-03-06T11:21:27;101995.75;;;23.83;45.60
62617;BME280;76316;51.190;6.808;2024-03-06T11:24:23;101994.56;;;23.90;45.64
62617;BME280;76316;51.190;6.808;2024-03-06T11:27:01;102001.31;;;23.75;45.67
62617;BME280;76316;51.190;6.808;2024-03-06T11:33:00;101997.34;;;23.63;45.91
62617;BME280;76316;51.190;6.808;2024-03-06T11:35:29;101995.94;;;23.53;45.89
62617;BME280;76316;51.190;6.808;2024-03-06T11:37:55;101998.00;;;23.44;45.97
62617;BME280;76316;51.190;6.808;2024-03-06T11:40:24;102004.25;;;23.42;46.09
62617;BME280;76316;51.190;6.808;2024-03-06T11:42:50;101993.53;;;23.70;45.54
62617;BME280;76316;51.190;6.808;2024-03-06T11:45:17;101997.69;;;24.01;45.27
62617;BME280;76316;51.190;6.808;2024-03-06T11:47:58;101997.41;;;24.31;44.33
62617;BME280;76316;51.190;6.808;2024-03-06T11:50:25;101993.78;;;24.56;44.00
62617;BME280;76316;51.190;6.808;2024-03-06T11:52:53;101992.34;;;24.70;43.98
62617;BME280;76316;51.190;6.808;2024-03-06T11:55:21;101994.88;;;24.95;43.47
62617;BME280;76316;51.190;6.808;2024-03-06T11:57:47;102000.06;;;25.19;42.72
62617;BME280;76316;51.190;6.808;2024-03-06T12:00:13;101999.13;;;25.41;42.59
62617;BME280;76316;51.190;6.808;2024-03-06T12:02:40;101996.59;;;25.58;42.09
62617;BME280;76316;51.190;6.808;2024-03-06T12:05:07;101996.81;;;25.73;41.74
62617;BME280;76316;51.190;6.808;2024-03-06T12:07:45;101997.38;;;25.60;41.99
62617;BME280;76316;51.190;6.808;2024-03-06T12:10:16;101993.38;;;25.71;41.99
62617;BME280;76316;51.190;6.808;2024-03-06T12:12:43;101994.16;;;25.92;41.23
62617;BME280;76316;51.190;6.808;2024-03-06T12:15:10;101992.63;;;25.67;42.01
62617;BME280;76316;51.190;6.808;2024-03-06T12:17:47;101996.53;;;25.79;41.21
62617;BME280;76316;51.190;6.808;2024-03-06T12:20:16;101996.81;;;25.92;41.18
62617;BME280;76316;51.190;6.808;2024-03-06T12:22:48;101987.56;;;26.20;40.46
62617;BME280;76316;51.190;6.808;2024-03-06T12:25:22;101993.66;;;26.41;40.26
62617;BME280;76316;51.190;6.808;2024-03-06T12:27:49;101988.84;;;26.30;40.32
62617;BME280;76316;51.190;6.808;2024-03-06T12:30:19;101992.94;;;25.99;40.74
62617;BME280;76316;51.190;6.808;2024-03-06T12:33:00;101988.13;;;26.07;40.60
62617;BME280;76316;51.190;6.808;2024-03-06T12:35:30;101989.19;;;26.03;40.90
62617;BME280;76316;51.190;6.808;2024-03-06T12:37:56;101981.38;;;26.00;40.64
62617;BME280;76316;51.190;6.808;2024-03-06T12:40:23;101981.16;;;25.86;41.10
62617;BME280;76316;51.190;6.808;2024-03-06T12:42:49;101980.16;;;25.69;41.28
62617;BME280;76316;51.190;6.808;2024-03-06T12:45:15;101974.47;;;25.58;41.51
62617;BME280;76316;51.190;6.808;2024-03-06T12:47:42;101977.25;;;25.54;41.53
62617;BME280;76316;51.190;6.808;2024-03-06T12:50:09;101976.97;;;25.61;41.45
62617;BME280;76316;51.190;6.808;2024-03-06T12:52:36;101974.84;;;25.88;40.90
62617;BME280;76316;51.190;6.808;2024-03-06T12:55:06;101981.66;;;26.13;40.37